Oylen, Minnesota
Current Conditions -  °F | °C
As of 10:34 PM on Saturday 22 Nov 2014 (Local Time) from KSAZ Reporting Station
Haze Haze  
Wind Chill: 23°   Ceiling: 200
Heat Index: 30°   Visibility: 1.2mi
Dew Point: 30°   Wind: 7mph
Humidity: 100%   Direction: 140°SE
Pressure: 29.44"   Gusts: NA
Location:  46.4671°N, 94.8901°W
Report Text: KSAZ 230434Z AUTO 14006KT 1 1/4SM BR OVC002 M01/M01 A2944 RMK AO2
Loading
Personal Weather Stations






























Interactive Weather Map New forecast layout! Learn more

10-Day Weather Forecast

Advertisements
Track Severe Weather on mobile